createdAt,value
2022-12-18T00:00:02.334Z,54.27
2022-12-18T00:02:29.790Z,54.20
2022-12-18T00:04:57.121Z,54.27
2022-12-18T00:07:24.298Z,54.55
2022-12-18T00:09:51.443Z,54.54
2022-12-18T00:14:50.795Z,54.61
2022-12-18T00:17:18.015Z,54.59
2022-12-18T00:19:45.161Z,54.39
2022-12-18T00:22:12.421Z,54.31
2022-12-18T00:24:39.628Z,54.89
2022-12-18T00:27:06.836Z,54.18
2022-12-18T00:29:34.056Z,54.04
2022-12-18T00:32:01.287Z,54.11
2022-12-18T00:34:28.768Z,54.45
2022-12-18T00:36:55.919Z,54.21
2022-12-18T00:39:23.268Z,54.44
2022-12-18T00:41:50.469Z,54.36
2022-12-18T00:44:19.657Z,54.07
2022-12-18T00:46:48.733Z,54.01
2022-12-18T00:49:19.345Z,54.22
2022-12-18T00:51:47.614Z,54.01
2022-12-18T00:54:15.138Z,54.02
2022-12-18T00:56:50.112Z,53.84
2022-12-18T00:59:20.755Z,54.07
2022-12-18T01:01:48.711Z,54.38
2022-12-18T01:04:16.356Z,54.28
2022-12-18T01:06:43.513Z,54.58
2022-12-18T01:09:12.072Z,53.80
2022-12-18T01:11:39.262Z,54.20
2022-12-18T01:14:06.502Z,54.49
2022-12-18T01:16:33.748Z,54.24
2022-12-18T01:19:00.926Z,53.83
2022-12-18T01:21:28.661Z,54.15
2022-12-18T01:23:57.853Z,54.32
2022-12-18T01:26:26.683Z,54.03
2022-12-18T01:28:56.632Z,54.06
2022-12-18T01:31:31.304Z,54.08
2022-12-18T01:34:01.034Z,53.92
2022-12-18T01:36:35.449Z,53.59
2022-12-18T01:39:14.943Z,53.69
2022-12-18T01:41:43.174Z,53.96
2022-12-18T01:45:03.736Z,54.36
2022-12-18T01:47:50.553Z,54.09
2022-12-18T01:50:25.851Z,54.12
2022-12-18T01:53:20.058Z,54.03
2022-12-18T01:55:55.461Z,54.09
2022-12-18T01:58:42.430Z,53.99
2022-12-18T02:01:10.172Z,53.69
2022-12-18T02:03:38.205Z,54.10
2022-12-18T02:06:21.381Z,54.17
2022-12-18T02:09:09.759Z,54.23
2022-12-18T02:12:26.361Z,53.84
2022-12-18T02:15:04.081Z,54.07
2022-12-18T02:17:44.035Z,54.26
2022-12-18T02:20:29.052Z,54.09
2022-12-18T02:23:32.808Z,54.07
2022-12-18T02:26:15.433Z,54.31
2022-12-18T02:28:58.316Z,54.20
2022-12-18T02:31:32.512Z,54.31
2022-12-18T02:34:05.253Z,53.90
2022-12-18T02:36:37.294Z,54.10
2022-12-18T02:39:08.956Z,54.16
2022-12-18T02:41:37.531Z,53.77
2022-12-18T02:44:14.302Z,53.81
2022-12-18T02:46:50.114Z,53.90
2022-12-18T02:49:36.920Z,53.74
2022-12-18T02:52:29.419Z,53.73
2022-12-18T02:55:15.592Z,53.84
2022-12-18T02:57:56.337Z,53.66
2022-12-18T03:00:31.042Z,53.54
2022-12-18T03:03:42.928Z,53.87
2022-12-18T03:06:30.316Z,53.95
2022-12-18T03:09:10.306Z,53.83
2022-12-18T03:11:46.132Z,53.75
2022-12-18T03:14:18.009Z,53.37
2022-12-18T03:16:49.400Z,53.57
2022-12-18T03:19:22.304Z,53.55
2022-12-18T03:21:55.320Z,53.70
2022-12-18T03:24:25.921Z,53.85
2022-12-18T03:27:02.011Z,53.32
2022-12-18T03:29:43.640Z,53.56
2022-12-18T03:32:28.125Z,53.70
2022-12-18T03:35:01.509Z,53.22
2022-12-18T03:37:32.455Z,53.54
2022-12-18T03:39:59.891Z,53.07
2022-12-18T03:42:49.903Z,53.17
2022-12-18T03:45:43.592Z,53.59
2022-12-18T03:48:36.468Z,53.87
2022-12-18T03:51:18.680Z,53.59
2022-12-18T03:54:10.108Z,53.71
2022-12-18T03:56:48.041Z,53.43
2022-12-18T03:59:18.439Z,53.75
2022-12-18T04:01:51.601Z,53.53
2022-12-18T04:04:21.119Z,53.61
2022-12-18T04:07:01.932Z,53.66
2022-12-18T04:09:32.971Z,53.73
2022-12-18T04:12:00.161Z,53.67
2022-12-18T04:14:27.340Z,53.56
2022-12-18T04:16:54.564Z,53.57
2022-12-18T04:19:21.723Z,53.27
2022-12-18T04:21:48.851Z,53.07
2022-12-18T04:24:16.067Z,53.38
2022-12-18T04:26:43.172Z,53.19
2022-12-18T04:29:10.398Z,52.86
2022-12-18T04:32:01.721Z,52.71
2022-12-18T04:34:29.821Z,52.89
2022-12-18T04:36:59.018Z,52.95
2022-12-18T04:39:26.820Z,53.34
2022-12-18T04:41:54.023Z,53.37
2022-12-18T04:44:37.020Z,53.31
2022-12-18T04:47:09.653Z,53.56
2022-12-18T04:49:36.849Z,53.61
2022-12-18T04:52:04.147Z,53.47
2022-12-18T04:54:31.315Z,53.45
2022-12-18T04:56:58.498Z,53.32
2022-12-18T04:59:25.710Z,53.32
2022-12-18T05:01:52.951Z,53.03
2022-12-18T05:04:20.296Z,52.90
2022-12-18T05:06:47.499Z,52.90
2022-12-18T05:09:15.563Z,52.79
2022-12-18T05:11:42.722Z,52.92
2022-12-18T05:14:09.933Z,52.69
2022-12-18T05:16:37.080Z,53.06
2022-12-18T05:19:04.225Z,53.26
2022-12-18T05:21:31.373Z,53.48
2022-12-18T05:23:58.593Z,53.26
2022-12-18T05:26:25.748Z,53.53
2022-12-18T05:28:52.910Z,53.53
2022-12-18T05:31:20.131Z,53.39
2022-12-18T05:33:47.368Z,53.22
2022-12-18T05:36:14.602Z,53.45
2022-12-18T05:38:42.631Z,53.14
2022-12-18T05:41:10.670Z,52.96
2022-12-18T05:43:40.758Z,52.69
2022-12-18T05:46:13.859Z,52.93
2022-12-18T05:48:42.457Z,52.45
2022-12-18T05:51:14.042Z,52.69
2022-12-18T05:53:42.545Z,52.48
2022-12-18T05:56:17.661Z,52.65
2022-12-18T05:58:45.920Z,52.61
2022-12-18T06:01:20.265Z,52.64
2022-12-18T06:03:48.037Z,52.52
2022-12-18T06:06:27.870Z,52.90
2022-12-18T06:08:56.696Z,52.51
2022-12-18T06:11:27.423Z,53.13
2022-12-18T06:13:58.971Z,52.97
2022-12-18T06:16:29.822Z,52.97
2022-12-18T06:19:00.352Z,52.67
2022-12-18T06:21:29.645Z,52.32
2022-12-18T06:23:57.495Z,52.29
2022-12-18T06:26:28.264Z,52.52
2022-12-18T06:28:56.039Z,52.15
2022-12-18T06:31:23.419Z,51.81
2022-12-18T06:33:50.810Z,51.97
2022-12-18T06:36:18.373Z,52.14
2022-12-18T06:38:45.847Z,51.72
2022-12-18T06:41:21.075Z,52.12
2022-12-18T06:43:48.725Z,51.94
2022-12-18T06:46:16.061Z,51.89
2022-12-18T06:48:43.561Z,51.76
2022-12-18T06:51:11.638Z,51.85
2022-12-18T06:53:39.030Z,51.73
2022-12-18T06:56:10.635Z,51.72
2022-12-18T06:58:39.468Z,51.21
2022-12-18T07:01:10.860Z,51.31
2022-12-18T07:03:40.602Z,51.50
2022-12-18T07:06:17.843Z,51.65
2022-12-18T07:08:46.800Z,51.55
2022-12-18T07:11:15.193Z,51.81
2022-12-18T07:13:42.991Z,51.48
2022-12-18T07:16:19.650Z,51.34
2022-12-18T07:18:49.756Z,51.73
2022-12-18T07:21:21.778Z,51.78
2022-12-18T07:23:49.462Z,51.65
2022-12-18T07:26:20.924Z,51.49
2022-12-18T07:28:49.325Z,52.28
2022-12-18T07:31:21.532Z,52.46
2022-12-18T07:33:51.211Z,52.25
2022-12-18T07:36:19.368Z,51.88
2022-12-18T07:38:50.169Z,51.91
2022-12-18T07:41:18.095Z,51.88
2022-12-18T07:43:45.735Z,51.67
2022-12-18T07:46:15.005Z,51.73
2022-12-18T07:48:45.550Z,51.49
2022-12-18T07:51:18.622Z,51.89
2022-12-18T07:53:46.041Z,51.87
2022-12-18T07:56:30.840Z,51.80
2022-12-18T07:59:00.481Z,51.57
2022-12-18T08:01:28.356Z,52.09
2022-12-18T08:03:55.832Z,52.06
2022-12-18T08:06:24.073Z,52.33
2022-12-18T08:08:56.870Z,52.42
2022-12-18T08:11:27.526Z,52.22
2022-12-18T08:13:55.353Z,52.45
2022-12-18T08:16:23.367Z,52.72
2022-12-18T08:18:53.540Z,52.52
2022-12-18T08:21:30.785Z,51.99
2022-12-18T08:24:01.368Z,52.12
2022-12-18T08:26:32.134Z,52.22
2022-12-18T08:29:01.506Z,51.95
2022-12-18T08:31:30.955Z,52.19
2022-12-18T08:33:58.633Z,52.14
2022-12-18T08:36:26.384Z,52.02
2022-12-18T08:38:54.683Z,51.57
2022-12-18T08:41:22.582Z,51.65
2022-12-18T08:43:50.325Z,51.11
2022-12-18T08:46:19.055Z,51.24
2022-12-18T08:48:46.605Z,51.57
2022-12-18T08:51:14.290Z,51.17
2022-12-18T08:53:41.952Z,50.84
2022-12-18T08:56:09.783Z,50.84
2022-12-18T08:58:37.390Z,50.71
2022-12-18T09:01:10.165Z,50.90
2022-12-18T09:03:38.873Z,51.13
2022-12-18T09:06:09.434Z,51.48
2022-12-18T09:08:41.175Z,51.19
2022-12-18T09:11:20.619Z,51.31
2022-12-18T09:13:48.158Z,51.22
2022-12-18T09:16:17.621Z,51.19
2022-12-18T09:18:45.251Z,51.74
2022-12-18T09:21:16.632Z,51.66
2022-12-18T09:23:44.817Z,51.62
2022-12-18T09:26:12.131Z,51.65
2022-12-18T09:28:39.669Z,51.49
2022-12-18T09:31:09.536Z,51.54
2022-12-18T09:33:37.282Z,50.99
2022-12-18T09:36:08.096Z,51.30
2022-12-18T09:38:36.341Z,51.27
2022-12-18T09:41:43.579Z,51.26
2022-12-18T09:44:28.631Z,51.75
2022-12-18T09:47:27.228Z,51.43
2022-12-18T09:50:01.486Z,51.98
2022-12-18T09:52:40.960Z,52.10
2022-12-18T09:55:37.490Z,52.08
2022-12-18T09:58:39.469Z,51.74
2022-12-18T10:01:23.095Z,52.04
2022-12-18T10:03:51.653Z,52.18
2022-12-18T10:06:28.350Z,51.97
2022-12-18T10:09:25.677Z,52.03
2022-12-18T10:12:38.713Z,52.06
2022-12-18T10:15:41.075Z,51.45
2022-12-18T10:18:49.982Z,51.78
2022-12-18T10:22:19.505Z,51.07
2022-12-18T10:25:02.932Z,51.23
2022-12-18T10:27:31.600Z,51.29
2022-12-18T10:30:02.306Z,51.28
2022-12-18T10:32:32.010Z,51.69
2022-12-18T10:35:00.708Z,51.88
2022-12-18T10:37:30.775Z,52.00
2022-12-18T10:40:22.192Z,52.16
2022-12-18T10:43:13.731Z,52.77
2022-12-18T10:45:42.351Z,52.31
2022-12-18T10:48:23.318Z,52.45
2022-12-18T10:53:43.573Z,53.04
2022-12-18T10:56:11.509Z,53.23
2022-12-18T10:58:40.921Z,53.68
2022-12-18T11:01:14.554Z,53.65
2022-12-18T11:03:50.743Z,53.55
2022-12-18T11:06:24.828Z,54.26
2022-12-18T11:09:29.176Z,54.17
2022-12-18T11:12:06.835Z,54.26
2022-12-18T11:14:57.510Z,53.87
2022-12-18T11:17:35.793Z,54.12
2022-12-18T11:20:19.479Z,54.22
2022-12-18T11:23:04.947Z,54.13
2022-12-18T11:25:35.768Z,53.19
2022-12-18T11:28:45.702Z,51.22
2022-12-18T11:31:29.343Z,50.09
2022-12-18T11:34:29.804Z,49.22
2022-12-18T11:37:02.007Z,48.71
2022-12-18T11:39:51.079Z,48.29
2022-12-18T11:42:39.053Z,48.14
2022-12-18T11:45:12.804Z,47.17
2022-12-18T11:48:01.537Z,46.94
2022-12-18T11:50:37.798Z,47.39
2022-12-18T11:53:06.379Z,48.28
2022-12-18T11:55:51.972Z,48.82
2022-12-18T11:58:31.597Z,49.68
2022-12-18T12:01:46.831Z,50.34
2022-12-18T12:04:44.439Z,51.03
2022-12-18T12:07:37.407Z,51.60
2022-12-18T12:10:43.507Z,51.68
2022-12-18T12:14:08.102Z,51.98
2022-12-18T12:17:16.715Z,52.29
2022-12-18T12:20:03.442Z,52.72
2022-12-18T12:22:51.707Z,52.56
2022-12-18T12:25:52.126Z,52.74
2022-12-18T12:29:10.866Z,53.11
2022-12-18T12:32:03.758Z,53.32
2022-12-18T12:34:54.820Z,53.31
2022-12-18T12:37:58.710Z,53.82
2022-12-18T12:43:28.317Z,53.36
2022-12-18T12:46:08.074Z,53.28
2022-12-18T12:48:49.181Z,53.65
2022-12-18T12:51:41.788Z,53.65
2022-12-18T12:54:24.252Z,53.70
2022-12-18T12:57:17.100Z,53.73
2022-12-18T13:00:13.973Z,53.70
2022-12-18T13:03:18.355Z,53.40
2022-12-18T13:06:45.125Z,53.60
2022-12-18T13:09:13.771Z,53.65
2022-12-18T13:11:48.698Z,53.50
2022-12-18T13:14:42.227Z,53.40
2022-12-18T13:17:35.676Z,53.64
2022-12-18T13:20:13.713Z,53.73
2022-12-18T13:22:48.122Z,53.72
2022-12-18T13:25:35.989Z,53.70
2022-12-18T13:28:34.971Z,53.36
2022-12-18T13:31:04.075Z,53.91
2022-12-18T13:33:51.047Z,53.93
2022-12-18T13:36:31.890Z,54.36
2022-12-18T13:39:35.938Z,54.83
2022-12-18T13:42:07.044Z,54.50
2022-12-18T13:44:41.423Z,54.58
2022-12-18T13:47:33.872Z,54.34
2022-12-18T13:50:03.380Z,54.19
2022-12-18T13:52:40.312Z,54.51
2022-12-18T13:55:19.807Z,54.66
2022-12-18T13:57:47.681Z,54.63
2022-12-18T14:00:31.326Z,55.10
2022-12-18T14:03:00.535Z,54.83
2022-12-18T14:05:29.334Z,55.14
2022-12-18T14:08:02.365Z,54.56
2022-12-18T14:10:49.061Z,53.99
2022-12-18T14:13:31.312Z,54.06
2022-12-18T14:16:04.151Z,54.00
2022-12-18T14:18:57.137Z,53.43
2022-12-18T14:21:34.619Z,53.40
2022-12-18T14:24:19.605Z,52.99
2022-12-18T14:26:51.963Z,52.98
2022-12-18T14:29:26.344Z,52.91
2022-12-18T14:32:18.143Z,52.81
2022-12-18T14:34:53.106Z,53.06
2022-12-18T14:37:26.262Z,53.04
2022-12-18T14:39:59.217Z,53.22
2022-12-18T14:42:30.463Z,53.60
2022-12-18T14:45:43.131Z,53.45
2022-12-18T14:48:23.206Z,53.60
2022-12-18T14:51:02.723Z,53.70
2022-12-18T14:53:47.742Z,53.70
2022-12-18T14:56:23.822Z,53.90
2022-12-18T14:59:06.686Z,53.85
2022-12-18T15:01:51.702Z,54.04
2022-12-18T15:04:29.045Z,54.19
2022-12-18T15:07:20.643Z,54.00
2022-12-18T15:10:23.797Z,53.93
2022-12-18T15:12:57.676Z,54.22
2022-12-18T15:15:37.141Z,54.00
2022-12-18T15:18:10.350Z,54.11
2022-12-18T15:20:52.956Z,53.81
2022-12-18T15:23:45.920Z,53.79
2022-12-18T15:26:17.209Z,53.97
2022-12-18T15:28:58.174Z,54.00
2022-12-18T15:31:35.933Z,54.17
2022-12-18T15:34:20.272Z,53.80
2022-12-18T15:36:47.665Z,54.18
2022-12-18T15:39:14.994Z,54.09
2022-12-18T15:41:42.320Z,53.63
2022-12-18T15:44:25.752Z,53.62
2022-12-18T15:46:53.210Z,53.62
2022-12-18T15:49:20.500Z,54.00
2022-12-18T15:51:59.007Z,53.48
2022-12-18T15:54:26.930Z,53.53
2022-12-18T15:56:54.111Z,53.49
2022-12-18T15:59:23.538Z,53.45
2022-12-18T16:01:52.711Z,54.01
2022-12-18T16:04:22.559Z,53.71
2022-12-18T16:07:13.953Z,53.56
2022-12-18T16:09:38.844Z,53.51
2022-12-18T16:12:14.939Z,53.79
2022-12-18T16:14:42.191Z,53.81
2022-12-18T16:17:13.675Z,54.14
2022-12-18T16:19:41.130Z,53.93
2022-12-18T16:22:29.322Z,53.80
2022-12-18T16:24:58.624Z,53.65
2022-12-18T16:27:26.966Z,53.48
2022-12-18T16:29:54.199Z,53.90
2022-12-18T16:32:23.558Z,53.74
2022-12-18T16:34:51.945Z,53.47
2022-12-18T16:37:19.255Z,53.77
2022-12-18T16:39:46.601Z,53.63
2022-12-18T16:42:19.645Z,53.39
2022-12-18T16:44:50.374Z,53.56
2022-12-18T16:47:19.165Z,53.70
2022-12-18T16:53:07.277Z,53.68
2022-12-18T16:56:07.731Z,53.92
2022-12-18T16:58:55.369Z,53.83
2022-12-18T17:01:24.133Z,54.01
2022-12-18T17:04:04.205Z,53.68
2022-12-18T17:06:36.175Z,53.61
2022-12-18T17:09:13.972Z,53.43
2022-12-18T17:11:41.567Z,53.07
2022-12-18T17:14:16.149Z,53.27
2022-12-18T17:16:44.810Z,53.75
2022-12-18T17:19:23.995Z,53.88
2022-12-18T17:21:54.422Z,53.37
2022-12-18T17:24:22.715Z,53.06
2022-12-18T17:26:55.439Z,53.36
2022-12-18T17:29:23.540Z,53.77
2022-12-18T17:31:52.460Z,53.35
2022-12-18T17:34:19.804Z,53.67
2022-12-18T17:36:47.772Z,53.44
2022-12-18T17:39:20.354Z,54.26
2022-12-18T17:41:49.497Z,53.85
2022-12-18T17:44:18.139Z,53.93
2022-12-18T17:46:46.095Z,53.94
2022-12-18T17:49:14.953Z,53.36
2022-12-18T17:51:42.634Z,53.58
2022-12-18T17:54:11.553Z,53.01
2022-12-18T17:56:39.613Z,53.27
2022-12-18T17:59:07.360Z,53.41
2022-12-18T18:01:39.723Z,53.42
2022-12-18T18:04:11.489Z,52.85
2022-12-18T18:06:40.903Z,53.03
2022-12-18T18:09:15.178Z,53.15
2022-12-18T18:11:47.089Z,53.51
2022-12-18T18:14:19.325Z,53.90
2022-12-18T18:16:50.436Z,53.85
2022-12-18T18:19:21.743Z,53.70
2022-12-18T18:21:52.074Z,53.51
2022-12-18T18:24:22.972Z,53.46
2022-12-18T18:26:50.680Z,53.85
2022-12-18T18:29:26.536Z,53.65
2022-12-18T18:31:55.072Z,53.43
2022-12-18T18:34:26.213Z,53.46
2022-12-18T18:36:54.360Z,53.55
2022-12-18T18:39:21.744Z,53.37
2022-12-18T18:41:49.714Z,53.14
2022-12-18T18:44:19.587Z,53.04
2022-12-18T18:46:49.348Z,53.50
2022-12-18T18:49:16.513Z,52.76
2022-12-18T18:51:43.804Z,52.62
2022-12-18T18:54:11.089Z,52.70
2022-12-18T18:57:11.656Z,52.34
2022-12-18T18:59:31.209Z,53.18
2022-12-18T19:02:04.186Z,52.91
2022-12-18T19:04:33.866Z,53.17
2022-12-18T19:07:01.314Z,53.60
2022-12-18T19:09:29.180Z,53.10
2022-12-18T19:11:56.984Z,53.03
2022-12-18T19:14:24.656Z,52.95
2022-12-18T19:16:51.933Z,53.53
2022-12-18T19:19:20.117Z,53.36
2022-12-18T19:21:48.148Z,53.13
2022-12-18T19:24:15.372Z,53.40
2022-12-18T19:26:42.681Z,53.49
2022-12-18T19:29:12.306Z,53.59
2022-12-18T19:31:39.556Z,53.47
2022-12-18T19:34:07.825Z,53.84
2022-12-18T19:36:38.439Z,53.75
2022-12-18T19:39:16.223Z,53.64
2022-12-18T19:41:44.434Z,53.55
2022-12-18T19:44:16.082Z,53.22
2022-12-18T19:46:44.898Z,53.25
2022-12-18T19:49:17.358Z,52.82
2022-12-18T19:51:45.889Z,52.54
2022-12-18T19:54:17.057Z,52.63
2022-12-18T19:56:45.464Z,53.14
2022-12-18T19:59:12.952Z,52.68
2022-12-18T20:01:41.050Z,52.73
2022-12-18T20:04:09.108Z,52.91
2022-12-18T20:06:50.858Z,53.14
2022-12-18T20:09:19.270Z,52.73
2022-12-18T20:11:48.135Z,52.66
2022-12-18T20:14:19.652Z,52.81
2022-12-18T20:16:52.360Z,52.88
2022-12-18T20:19:20.735Z,52.60
2022-12-18T20:21:48.074Z,53.09
2022-12-18T20:24:15.251Z,52.84
2022-12-18T20:26:42.592Z,53.50
2022-12-18T20:29:10.065Z,53.33
2022-12-18T20:31:37.361Z,53.19
2022-12-18T20:34:04.964Z,53.31
2022-12-18T20:36:35.236Z,52.87
2022-12-18T20:39:09.885Z,53.26
2022-12-18T20:41:39.297Z,52.69
2022-12-18T20:44:21.737Z,53.27
2022-12-18T20:46:59.783Z,52.91
2022-12-18T20:49:27.924Z,52.69
2022-12-18T20:51:57.717Z,52.56
2022-12-18T20:54:27.504Z,53.24
2022-12-18T20:56:55.715Z,53.33
2022-12-18T20:59:23.368Z,53.34
2022-12-18T21:01:50.947Z,52.86
2022-12-18T21:04:19.521Z,52.65
2022-12-18T21:06:53.291Z,53.13
2022-12-18T21:09:25.119Z,53.03
2022-12-18T21:11:52.300Z,53.35
2022-12-18T21:14:24.348Z,53.30
2022-12-18T21:16:56.243Z,53.29
2022-12-18T21:19:25.885Z,53.31
2022-12-18T21:21:55.721Z,52.80
2022-12-18T21:24:23.923Z,52.87
2022-12-18T21:26:51.439Z,52.65
2022-12-18T21:29:23.065Z,52.82
2022-12-18T21:31:52.446Z,52.98
2022-12-18T21:34:27.859Z,52.93
2022-12-18T21:36:58.147Z,53.14
2022-12-18T21:39:28.945Z,53.23
2022-12-18T21:41:57.557Z,53.37
2022-12-18T21:44:25.029Z,53.15
2022-12-18T21:46:58.239Z,53.01
2022-12-18T21:49:28.936Z,53.56
2022-12-18T21:51:58.590Z,54.23
2022-12-18T21:54:29.026Z,53.75
2022-12-18T21:57:02.392Z,54.24
2022-12-18T21:59:38.640Z,54.05
2022-12-18T22:02:20.538Z,54.39
2022-12-18T22:04:48.780Z,54.54
2022-12-18T22:07:17.077Z,54.66
2022-12-18T22:09:44.495Z,55.07
2022-12-18T22:12:13.972Z,54.61
2022-12-18T22:14:41.176Z,55.06
2022-12-18T22:17:08.331Z,55.29
2022-12-18T22:19:39.618Z,54.84
2022-12-18T22:22:09.928Z,54.75
2022-12-18T22:24:37.178Z,54.51
2022-12-18T22:27:04.367Z,55.05
2022-12-18T22:29:31.572Z,55.72
2022-12-18T22:32:01.151Z,56.13
2022-12-18T22:34:28.832Z,56.01
2022-12-18T22:36:56.157Z,55.58
2022-12-18T22:39:28.700Z,55.73
2022-12-18T22:41:56.970Z,55.37
2022-12-18T22:44:27.446Z,55.67
2022-12-18T22:47:06.297Z,55.08
2022-12-18T22:49:35.789Z,55.49
2022-12-18T22:52:09.119Z,55.45
2022-12-18T22:54:36.459Z,55.50
2022-12-18T22:57:03.745Z,55.87
2022-12-18T22:59:31.063Z,55.52
2022-12-18T23:01:59.489Z,55.97
2022-12-18T23:04:28.113Z,56.17
2022-12-18T23:06:59.280Z,56.40
2022-12-18T23:09:26.455Z,56.79
2022-12-18T23:11:53.709Z,56.66
2022-12-18T23:14:20.901Z,56.85
2022-12-18T23:16:48.249Z,56.95
2022-12-18T23:19:17.634Z,56.67
2022-12-18T23:21:44.862Z,57.07
2022-12-18T23:24:12.041Z,57.06
2022-12-18T23:26:39.321Z,57.31
2022-12-18T23:29:07.446Z,57.69
2022-12-18T23:31:38.240Z,57.30
2022-12-18T23:34:07.146Z,57.63
2022-12-18T23:36:45.360Z,57.62
2022-12-18T23:39:22.325Z,57.48
2022-12-18T23:42:01.050Z,57.60
2022-12-18T23:44:28.310Z,57.94
2022-12-18T23:46:55.770Z,58.10
2022-12-18T23:49:23.398Z,58.32
2022-12-18T23:51:50.985Z,58.47
2022-12-18T23:54:22.671Z,58.22
2022-12-18T23:57:01.005Z,58.17
2022-12-18T23:59:28.211Z,58.25
